AirNav   ProFlight Series 2 Aviation Headset
 
 1087 users online  

CL35 Warner Springs Gliderport
Warner Springs, California, USA

GOING TO WARNER SPRINGS?


FAA INFORMATION EFFECTIVE 16 JULY 2020

Location

FAA Identifier: CL35
Lat/Long: 33-17-04.2100N 116-40-10.7650W
33-17.070167N 116-40.179417W
33.2845028,-116.6696569
(estimated)
Elevation: 2880 ft. / 878 m (estimated)
Variation: 13E (1985)
From city: 2 miles E of WARNER SPRINGS, CA
Time zone: UTC -7 (UTC -8 during Standard Time)
Zip code: 92086

Gliderport Operations

Gliderport use: Private use. Permission required prior to landing
Activation date: 10/1984
Control tower: no
ARTCC: LOS ANGELES CENTER
FSS: SAN DIEGO FLIGHT SERVICE STATION
Attendance: 0900-1700
Wind indicator: yes
Segmented circle: yes
Landing fee: yes

Gliderport Communications

UNICOM: 122.8
WX AWOS-3P at L08 (18 nm E): 126.575 (760-767-3308)
WX ASOS at RNM (19 nm SW): PHONE 760-789-7699

Nearby radio navigation aids

VOR radial/distance  VOR name  Freq  Var
JLIr319/9.6JULIAN VORTAC114.0015E
TRMr218/32.8THERMAL VORTAC116.2013E
PSPr186/37.1PALM SPRINGS VORTAC115.5013E
OCNr071/37.6OCEANSIDE VORTAC115.3015E
HDFr125/(39.2)HOMELAND VOR113.4014E

Gliderport Services

Runway Information

Runway 8/26

Dimensions: 3500 x 70 ft. / 1067 x 21 m
Surface: asphalt
RUNWAY 8  RUNWAY 26
Latitude: 33-17.060333N33-17.080000N
Longitude: 116-40.522667W116-39.836167W
Elevation: 2873.0 ft.2914.0 ft.
Traffic pattern: leftleft
Obstructions: none200 ft. hill, 5200 ft. from runway

Gliderport Ownership and Management from official FAA records

Ownership: Privately-owned
Owner: WARNER SPRINGS RANCH RESORT, LLC
31930 HWY 79
WARNER SPRINGS, CA 92086
Phone 760-782-4200
SKY SAILING 31930 HWY 79.
Manager: BRET WILLAT
SKY SAILING 31930 HWY 79
WARNER SPRINGS, CA 92086
Phone 760-782-0404
LEASEE.

Gliderport Operational Statistics

Aircraft based on the field: 80
Single engine airplanes: 10
Gliders airplanes: 70
    

Additional Remarks

FOR CD CTC LOS ANGELES ARTCC AT 661-575-2079.

Instrument Procedures

There are no published instrument procedures at CL35.

Some nearby airports with instrument procedures:

L08 - Borrego Valley Airport (18 nm E)
KRNM - Ramona Airport (19 nm SW)
F70 - French Valley Airport (29 nm NW)
L18 - Fallbrook Community Airpark (29 nm W)
KSEE - Gillespie Field Airport (31 nm SW)
 
Loc | Ops | Rwys | IFR | FBO | Links
Com | Nav | Svcs | Stats | Notes
Area around CL35 (Warner Springs Gliderport)
 
Road maps at: MapQuest Bing Google
 
Aerial photo
WARNING: Photo may not be current or correct
Aerial photo of CL35 (Warner Springs Gliderport)
Photo by Steve Lupinacci
Photo taken 27-May-2008

Do you have a better or more recent aerial photo of Warner Springs Gliderport that you would like to share? If so, please send us your photo.

 
Sectional chart

 
Airport distance calculator
Flying to Warner Springs Gliderport? Find the distance to fly.

From to CL35

Sunrise and sunset
Times for 08-Aug-2020
 Local
(UTC-7)
 Zulu
(UTC)
Morning civil twilight05:4012:40
Sunrise06:0613:06
Sunset19:3802:38
Evening civil twilight20:0503:05

Current date and time
Zulu (UTC)  08-Aug-2020 15:47:44
Local (UTC-7)  08-Aug-2020 08:47:44
 
METAR
KL08 
18nm E 
081535Z AUTO 00000KT 10SM CLR 29/01 A2989 RMK AO2
KRNM 
20nm SW 
081453Z 00000KT 10SM CLR 17/11 A3002 RMK AO2 SLP154 T01720111 52013
KF70 
29nm NW 
081535Z AUTO 00000KT 10SM CLR 20/11 A3003 RMK AO1
KL18 
29nm W 
081535Z AUTO 00000KT 10SM OVC006 17/15 A3003 RMK AO2
KSEE 
32nm SW 
081450Z 00000KT 1 3/4SM BR OVC003 16/15 A3002
KCRQ 
32nm W 
081453Z AUTO 00000KT 10SM OVC010 19/15 A3000 RMK AO2 SLP156 T01890150 51017
KHMT 
32nm NW 
081535Z AUTO 00000KT 10SM CLR 22/09 A3003 RMK AO2 T02170085
KTRM 
33nm NE 
081452Z AUTO 31008KT 10SM CLR 31/08 A2983 RMK AO2 SLP113 T03110078 51021
KPSP 
33nm N 
081453Z 00000KT 10SM CLR 28/10 A2989 RMK AO2 SLP116 T02780100 52017
KNFG 
33nm W 
081455Z AUTO 04004KT 10SM OVC007 19/14 A3001 RMK AO2 SLP160 T01940144 53017 $
TAF
KCRQ 
32nm W 
081138Z 0812/0912 VRB03KT P6SM OVC010 FM081630 VRB04KT P6SM SCT010 FM081900 26008KT P6SM SKC FM090200 VRB04KT P6SM FEW010 FM090500 VRB03KT 5SM BR BKN008
KTRM 
33nm NE 
081138Z 0812/0912 32010KT P6SM SKC FM081500 VRB05KT P6SM SKC FM090200 33011G18KT P6SM SKC
KPSP 
33nm N 
081138Z 0812/0912 VRB05KT P6SM SKC FM081900 10007KT P6SM SKC FM082300 33012G22KT P6SM SKC FM090600 VRB05KT P6SM SKC
KNFG 
33nm W 
0809/0909 VRB05KT 9999 SKC QNH2990INS TEMPO 0809/0815 OVC007 T15/0812Z T26/0821Z
KNKX 
34nm SW 
0809/0909 VRB05KT 9999 OVC007 QNH2994INS BECMG 0815/0817 VRB05KT 9999 SKC QNH2991INS TEMPO 0818/0900 29009KT T17/0812Z T26/0821Z
NOTAMs
Click for the latest NOTAMs
NOTAMs are issued by the DoD/FAA and will open in a separate window not controlled by AirNav.

 

 
 

Would you like to see your business listed on this page?

 If your business provides an interesting product or service to pilots, flight crews, aircraft, or users of the Warner Springs Gliderport, you should consider listing it here.  To start the listing process, click on the button below
 
Add a business
 

Other Pages about Warner Springs Gliderport

www.agcsc.org/warner_springs_info.html
 
Update a link
 
Copyright © AirNav, LLC. All rights reserved. Privacy Policy  Contact